sensor_id;sensor_type;location;lat;lon;timestamp;P1;durP1;ratioP1;P2;durP2;ratioP2
44428;SDS011;30134;47.866;-4.222;2023-07-31T00:01:50;9.27;;;4.88;;
44428;SDS011;30134;47.866;-4.222;2023-07-31T00:04:16;9.82;;;4.80;;
44428;SDS011;30134;47.866;-4.222;2023-07-31T00:06:42;11.15;;;4.68;;
44428;SDS011;30134;47.866;-4.222;2023-07-31T00:09:08;10.75;;;5.05;;
44428;SDS011;30134;47.866;-4.222;2023-07-31T00:11:34;9.32;;;4.47;;
44428;SDS011;30134;47.866;-4.222;2023-07-31T00:14:00;9.05;;;4.57;;
44428;SDS011;30134;47.866;-4.222;2023-07-31T00:16:26;9.57;;;4.90;;
44428;SDS011;30134;47.866;-4.222;2023-07-31T00:18:52;9.95;;;4.40;;
44428;SDS011;30134;47.866;-4.222;2023-07-31T00:21:27;11.77;;;4.63;;
44428;SDS011;30134;47.866;-4.222;2023-07-31T00:23:53;9.57;;;4.57;;
44428;SDS011;30134;47.866;-4.222;2023-07-31T00:26:19;7.93;;;4.32;;
44428;SDS011;30134;47.866;-4.222;2023-07-31T00:28:45;8.55;;;4.72;;
44428;SDS011;30134;47.866;-4.222;2023-07-31T00:31:11;9.32;;;4.55;;
44428;SDS011;30134;47.866;-4.222;2023-07-31T00:33:37;8.82;;;4.38;;
44428;SDS011;30134;47.866;-4.222;2023-07-31T00:36:03;10.68;;;5.40;;
44428;SDS011;30134;47.866;-4.222;2023-07-31T00:38:30;10.23;;;5.10;;
44428;SDS011;30134;47.866;-4.222;2023-07-31T00:40:55;10.10;;;4.72;;
44428;SDS011;30134;47.866;-4.222;2023-07-31T00:43:22;8.75;;;4.45;;
44428;SDS011;30134;47.866;-4.222;2023-07-31T00:45:48;10.48;;;4.78;;
44428;SDS011;30134;47.866;-4.222;2023-07-31T00:48:14;7.35;;;4.05;;
44428;SDS011;30134;47.866;-4.222;2023-07-31T00:50:39;8.77;;;4.70;;
44428;SDS011;30134;47.866;-4.222;2023-07-31T00:53:06;10.20;;;4.43;;
44428;SDS011;30134;47.866;-4.222;2023-07-31T00:55:32;9.57;;;4.45;;
44428;SDS011;30134;47.866;-4.222;2023-07-31T00:57:58;9.02;;;4.50;;
44428;SDS011;30134;47.866;-4.222;2023-07-31T01:00:24;9.63;;;4.53;;
44428;SDS011;30134;47.866;-4.222;2023-07-31T01:02:50;12.57;;;4.47;;
44428;SDS011;30134;47.866;-4.222;2023-07-31T01:05:18;8.95;;;4.93;;
44428;SDS011;30134;47.866;-4.222;2023-07-31T01:08:05;11.20;;;5.10;;
44428;SDS011;30134;47.866;-4.222;2023-07-31T01:10:48;65.60;;;39.55;;
44428;SDS011;30134;47.866;-4.222;2023-07-31T01:13:22;68.70;;;42.67;;
44428;SDS011;30134;47.866;-4.222;2023-07-31T01:15:49;83.53;;;54.00;;
44428;SDS011;30134;47.866;-4.222;2023-07-31T01:18:15;86.35;;;54.17;;
44428;SDS011;30134;47.866;-4.222;2023-07-31T01:20:41;70.65;;;44.92;;
44428;SDS011;30134;47.866;-4.222;2023-07-31T01:26:16;56.60;;;34.78;;
44428;SDS011;30134;47.866;-4.222;2023-07-31T01:31:30;55.45;;;31.70;;
44428;SDS011;30134;47.866;-4.222;2023-07-31T01:33:59;43.15;;;28.13;;
44428;SDS011;30134;47.866;-4.222;2023-07-31T01:36:27;42.22;;;26.38;;
44428;SDS011;30134;47.866;-4.222;2023-07-31T01:38:58;37.85;;;24.60;;
44428;SDS011;30134;47.866;-4.222;2023-07-31T01:41:25;39.35;;;25.05;;
44428;SDS011;30134;47.866;-4.222;2023-07-31T01:43:52;38.85;;;22.83;;
44428;SDS011;30134;47.866;-4.222;2023-07-31T01:46:18;35.67;;;22.48;;
44428;SDS011;30134;47.866;-4.222;2023-07-31T01:48:46;35.28;;;21.45;;
44428;SDS011;30134;47.866;-4.222;2023-07-31T01:51:12;33.72;;;20.92;;
44428;SDS011;30134;47.866;-4.222;2023-07-31T01:53:38;32.55;;;19.85;;
44428;SDS011;30134;47.866;-4.222;2023-07-31T01:56:04;29.48;;;18.02;;
44428;SDS011;30134;47.866;-4.222;2023-07-31T01:58:30;29.13;;;16.80;;
44428;SDS011;30134;47.866;-4.222;2023-07-31T02:00:56;28.48;;;16.90;;
44428;SDS011;30134;47.866;-4.222;2023-07-31T02:03:22;29.10;;;16.65;;
44428;SDS011;30134;47.866;-4.222;2023-07-31T02:05:49;25.08;;;15.55;;
44428;SDS011;30134;47.866;-4.222;2023-07-31T02:08:15;24.33;;;15.48;;
44428;SDS011;30134;47.866;-4.222;2023-07-31T02:10:41;24.45;;;14.35;;
44428;SDS011;30134;47.866;-4.222;2023-07-31T02:13:08;20.35;;;13.13;;
44428;SDS011;30134;47.866;-4.222;2023-07-31T02:15:34;22.55;;;13.57;;
44428;SDS011;30134;47.866;-4.222;2023-07-31T02:18:00;20.60;;;11.82;;
44428;SDS011;30134;47.866;-4.222;2023-07-31T02:20:26;21.95;;;12.00;;
44428;SDS011;30134;47.866;-4.222;2023-07-31T02:22:59;23.40;;;12.25;;
44428;SDS011;30134;47.866;-4.222;2023-07-31T02:25:25;21.20;;;11.30;;
44428;SDS011;30134;47.866;-4.222;2023-07-31T02:27:51;22.90;;;11.20;;
44428;SDS011;30134;47.866;-4.222;2023-07-31T02:30:17;17.58;;;10.07;;
44428;SDS011;30134;47.866;-4.222;2023-07-31T02:32:43;20.98;;;10.23;;
44428;SDS011;30134;47.866;-4.222;2023-07-31T02:35:11;19.38;;;10.52;;
44428;SDS011;30134;47.866;-4.222;2023-07-31T02:37:40;15.20;;;9.27;;
44428;SDS011;30134;47.866;-4.222;2023-07-31T02:40:07;19.30;;;9.57;;
44428;SDS011;30134;47.866;-4.222;2023-07-31T02:42:34;18.45;;;10.80;;
44428;SDS011;30134;47.866;-4.222;2023-07-31T02:45:00;32.08;;;22.45;;
44428;SDS011;30134;47.866;-4.222;2023-07-31T02:47:34;20.52;;;13.18;;
44428;SDS011;30134;47.866;-4.222;2023-07-31T02:50:17;23.70;;;14.10;;
44428;SDS011;30134;47.866;-4.222;2023-07-31T02:52:43;23.90;;;15.10;;
44428;SDS011;30134;47.866;-4.222;2023-07-31T02:55:09;21.60;;;14.02;;
44428;SDS011;30134;47.866;-4.222;2023-07-31T02:57:35;21.45;;;13.05;;
44428;SDS011;30134;47.866;-4.222;2023-07-31T03:00:01;25.60;;;13.50;;
44428;SDS011;30134;47.866;-4.222;2023-07-31T03:02:30;19.88;;;12.25;;
44428;SDS011;30134;47.866;-4.222;2023-07-31T03:04:56;23.55;;;12.52;;
44428;SDS011;30134;47.866;-4.222;2023-07-31T03:07:22;20.80;;;11.65;;
44428;SDS011;30134;47.866;-4.222;2023-07-31T03:09:48;19.38;;;11.20;;
44428;SDS011;30134;47.866;-4.222;2023-07-31T03:12:14;18.67;;;10.52;;
44428;SDS011;30134;47.866;-4.222;2023-07-31T03:14:40;16.25;;;10.52;;
44428;SDS011;30134;47.866;-4.222;2023-07-31T03:17:06;19.00;;;9.95;;
44428;SDS011;30134;47.866;-4.222;2023-07-31T03:19:32;17.52;;;10.60;;
44428;SDS011;30134;47.866;-4.222;2023-07-31T03:21:59;17.20;;;9.95;;
44428;SDS011;30134;47.866;-4.222;2023-07-31T03:24:25;16.05;;;9.35;;
44428;SDS011;30134;47.866;-4.222;2023-07-31T03:26:51;12.70;;;8.43;;
44428;SDS011;30134;47.866;-4.222;2023-07-31T03:29:17;13.43;;;8.27;;
44428;SDS011;30134;47.866;-4.222;2023-07-31T03:31:46;17.42;;;7.57;;
44428;SDS011;30134;47.866;-4.222;2023-07-31T03:34:12;15.68;;;7.88;;
44428;SDS011;30134;47.866;-4.222;2023-07-31T03:36:38;13.90;;;7.30;;
44428;SDS011;30134;47.866;-4.222;2023-07-31T03:39:04;14.25;;;7.93;;
44428;SDS011;30134;47.866;-4.222;2023-07-31T03:41:30;16.67;;;7.57;;
44428;SDS011;30134;47.866;-4.222;2023-07-31T03:43:56;12.27;;;6.78;;
44428;SDS011;30134;47.866;-4.222;2023-07-31T03:46:23;15.05;;;7.45;;
44428;SDS011;30134;47.866;-4.222;2023-07-31T03:48:50;13.88;;;6.68;;
44428;SDS011;30134;47.866;-4.222;2023-07-31T03:51:16;13.00;;;6.70;;
44428;SDS011;30134;47.866;-4.222;2023-07-31T03:53:43;14.05;;;6.28;;
44428;SDS011;30134;47.866;-4.222;2023-07-31T03:56:09;11.65;;;6.20;;
44428;SDS011;30134;47.866;-4.222;2023-07-31T03:58:39;12.80;;;6.60;;
44428;SDS011;30134;47.866;-4.222;2023-07-31T04:01:05;10.25;;;5.80;;
44428;SDS011;30134;47.866;-4.222;2023-07-31T04:03:31;11.82;;;6.13;;
44428;SDS011;30134;47.866;-4.222;2023-07-31T04:05:57;11.15;;;5.93;;
44428;SDS011;30134;47.866;-4.222;2023-07-31T04:08:23;10.15;;;5.10;;
44428;SDS011;30134;47.866;-4.222;2023-07-31T04:10:50;11.75;;;6.03;;
44428;SDS011;30134;47.866;-4.222;2023-07-31T04:13:16;13.43;;;5.85;;
44428;SDS011;30134;47.866;-4.222;2023-07-31T04:15:41;12.35;;;5.20;;
44428;SDS011;30134;47.866;-4.222;2023-07-31T04:18:07;9.75;;;5.28;;
44428;SDS011;30134;47.866;-4.222;2023-07-31T04:20:33;10.40;;;5.35;;
44428;SDS011;30134;47.866;-4.222;2023-07-31T04:22:59;11.52;;;5.18;;
44428;SDS011;30134;47.866;-4.222;2023-07-31T04:25:25;10.93;;;4.63;;
44428;SDS011;30134;47.866;-4.222;2023-07-31T04:27:51;10.18;;;5.10;;
44428;SDS011;30134;47.866;-4.222;2023-07-31T04:30:17;10.32;;;4.68;;
44428;SDS011;30134;47.866;-4.222;2023-07-31T04:32:43;9.18;;;5.07;;
44428;SDS011;30134;47.866;-4.222;2023-07-31T04:35:10;8.90;;;4.40;;
44428;SDS011;30134;47.866;-4.222;2023-07-31T04:37:36;10.30;;;4.22;;
44428;SDS011;30134;47.866;-4.222;2023-07-31T04:40:02;10.10;;;4.68;;
44428;SDS011;30134;47.866;-4.222;2023-07-31T04:42:29;8.35;;;4.00;;
44428;SDS011;30134;47.866;-4.222;2023-07-31T04:44:55;9.13;;;4.43;;
44428;SDS011;30134;47.866;-4.222;2023-07-31T04:47:21;13.18;;;4.57;;
44428;SDS011;30134;47.866;-4.222;2023-07-31T04:49:47;10.88;;;4.55;;
44428;SDS011;30134;47.866;-4.222;2023-07-31T04:52:13;9.48;;;4.57;;
44428;SDS011;30134;47.866;-4.222;2023-07-31T04:54:39;9.85;;;4.28;;
44428;SDS011;30134;47.866;-4.222;2023-07-31T04:57:05;9.95;;;4.38;;
44428;SDS011;30134;47.866;-4.222;2023-07-31T04:59:31;8.18;;;4.13;;
44428;SDS011;30134;47.866;-4.222;2023-07-31T05:01:57;9.88;;;4.63;;
44428;SDS011;30134;47.866;-4.222;2023-07-31T05:04:23;9.82;;;4.60;;
44428;SDS011;30134;47.866;-4.222;2023-07-31T05:06:49;11.90;;;4.03;;
44428;SDS011;30134;47.866;-4.222;2023-07-31T05:09:15;9.77;;;4.13;;
44428;SDS011;30134;47.866;-4.222;2023-07-31T05:11:41;9.18;;;4.40;;
44428;SDS011;30134;47.866;-4.222;2023-07-31T05:14:08;9.70;;;4.20;;
44428;SDS011;30134;47.866;-4.222;2023-07-31T05:16:34;9.68;;;4.13;;
44428;SDS011;30134;47.866;-4.222;2023-07-31T05:19:00;11.25;;;3.83;;
44428;SDS011;30134;47.866;-4.222;2023-07-31T05:21:26;9.90;;;4.32;;
44428;SDS011;30134;47.866;-4.222;2023-07-31T05:23:52;10.25;;;4.20;;
44428;SDS011;30134;47.866;-4.222;2023-07-31T05:26:20;9.80;;;4.28;;
44428;SDS011;30134;47.866;-4.222;2023-07-31T05:28:46;9.73;;;4.68;;
44428;SDS011;30134;47.866;-4.222;2023-07-31T05:31:12;9.90;;;4.30;;
44428;SDS011;30134;47.866;-4.222;2023-07-31T05:33:38;10.50;;;4.40;;
44428;SDS011;30134;47.866;-4.222;2023-07-31T05:36:04;10.68;;;4.35;;
44428;SDS011;30134;47.866;-4.222;2023-07-31T05:38:30;11.38;;;3.97;;
44428;SDS011;30134;47.866;-4.222;2023-07-31T05:40:56;10.48;;;3.85;;
44428;SDS011;30134;47.866;-4.222;2023-07-31T05:43:22;11.10;;;3.92;;
44428;SDS011;30134;47.866;-4.222;2023-07-31T05:45:48;9.98;;;3.70;;
44428;SDS011;30134;47.866;-4.222;2023-07-31T05:48:16;8.98;;;4.25;;
44428;SDS011;30134;47.866;-4.222;2023-07-31T05:50:43;10.15;;;3.63;;
44428;SDS011;30134;47.866;-4.222;2023-07-31T05:53:09;10.65;;;4.18;;
44428;SDS011;30134;47.866;-4.222;2023-07-31T05:55:35;8.60;;;3.90;;
44428;SDS011;30134;47.866;-4.222;2023-07-31T05:58:01;10.15;;;3.78;;
44428;SDS011;30134;47.866;-4.222;2023-07-31T06:00:29;9.90;;;3.92;;
44428;SDS011;30134;47.866;-4.222;2023-07-31T06:02:55;11.88;;;4.30;;
44428;SDS011;30134;47.866;-4.222;2023-07-31T06:05:21;8.52;;;4.05;;
44428;SDS011;30134;47.866;-4.222;2023-07-31T06:07:47;11.13;;;4.85;;
44428;SDS011;30134;47.866;-4.222;2023-07-31T06:10:13;11.85;;;3.72;;
44428;SDS011;30134;47.866;-4.222;2023-07-31T06:12:39;11.07;;;4.00;;
44428;SDS011;30134;47.866;-4.222;2023-07-31T06:15:05;8.77;;;3.67;;
44428;SDS011;30134;47.866;-4.222;2023-07-31T06:17:32;11.25;;;4.05;;
44428;SDS011;30134;47.866;-4.222;2023-07-31T06:19:58;8.32;;;3.92;;
44428;SDS011;30134;47.866;-4.222;2023-07-31T06:24:56;8.85;;;3.38;;
44428;SDS011;30134;47.866;-4.222;2023-07-31T06:27:22;8.13;;;3.58;;
44428;SDS011;30134;47.866;-4.222;2023-07-31T06:29:48;10.45;;;3.72;;
44428;SDS011;30134;47.866;-4.222;2023-07-31T06:32:14;11.63;;;4.03;;
44428;SDS011;30134;47.866;-4.222;2023-07-31T06:34:40;10.43;;;4.03;;
44428;SDS011;30134;47.866;-4.222;2023-07-31T06:37:06;12.32;;;4.15;;
44428;SDS011;30134;47.866;-4.222;2023-07-31T06:39:32;9.23;;;3.83;;
44428;SDS011;30134;47.866;-4.222;2023-07-31T06:41:58;12.35;;;4.15;;
44428;SDS011;30134;47.866;-4.222;2023-07-31T06:44:24;9.15;;;3.65;;
44428;SDS011;30134;47.866;-4.222;2023-07-31T06:46:50;13.32;;;4.47;;
44428;SDS011;30134;47.866;-4.222;2023-07-31T06:49:16;11.43;;;4.35;;
44428;SDS011;30134;47.866;-4.222;2023-07-31T06:51:42;11.07;;;3.80;;
44428;SDS011;30134;47.866;-4.222;2023-07-31T06:54:09;9.85;;;3.92;;
44428;SDS011;30134;47.866;-4.222;2023-07-31T06:56:38;12.93;;;4.10;;
44428;SDS011;30134;47.866;-4.222;2023-07-31T06:59:04;9.18;;;3.70;;
44428;SDS011;30134;47.866;-4.222;2023-07-31T07:01:30;10.07;;;3.95;;
44428;SDS011;30134;47.866;-4.222;2023-07-31T07:03:56;10.27;;;3.70;;
44428;SDS011;30134;47.866;-4.222;2023-07-31T07:06:22;12.15;;;4.22;;
44428;SDS011;30134;47.866;-4.222;2023-07-31T07:08:48;12.52;;;4.30;;
44428;SDS011;30134;47.866;-4.222;2023-07-31T07:11:14;10.57;;;4.35;;
44428;SDS011;30134;47.866;-4.222;2023-07-31T07:13:40;9.07;;;3.58;;
44428;SDS011;30134;47.866;-4.222;2023-07-31T07:16:06;7.55;;;3.60;;
44428;SDS011;30134;47.866;-4.222;2023-07-31T07:18:32;12.20;;;4.35;;
44428;SDS011;30134;47.866;-4.222;2023-07-31T07:20:58;10.02;;;3.65;;
44428;SDS011;30134;47.866;-4.222;2023-07-31T07:23:26;9.25;;;4.10;;
44428;SDS011;30134;47.866;-4.222;2023-07-31T07:25:52;9.75;;;3.65;;
44428;SDS011;30134;47.866;-4.222;2023-07-31T07:28:18;8.90;;;3.75;;
44428;SDS011;30134;47.866;-4.222;2023-07-31T07:30:44;8.45;;;4.07;;
44428;SDS011;30134;47.866;-4.222;2023-07-31T07:33:15;10.18;;;3.92;;
44428;SDS011;30134;47.866;-4.222;2023-07-31T07:35:41;10.57;;;4.13;;
44428;SDS011;30134;47.866;-4.222;2023-07-31T07:38:07;10.00;;;3.47;;
44428;SDS011;30134;47.866;-4.222;2023-07-31T07:40:37;9.38;;;3.85;;
44428;SDS011;30134;47.866;-4.222;2023-07-31T07:43:04;10.68;;;3.78;;
44428;SDS011;30134;47.866;-4.222;2023-07-31T07:45:30;10.60;;;3.92;;
44428;SDS011;30134;47.866;-4.222;2023-07-31T07:47:56;9.93;;;4.03;;
44428;SDS011;30134;47.866;-4.222;2023-07-31T07:50:24;10.77;;;3.83;;
44428;SDS011;30134;47.866;-4.222;2023-07-31T07:52:50;8.80;;;3.90;;
44428;SDS011;30134;47.866;-4.222;2023-07-31T07:55:16;9.05;;;3.45;;
44428;SDS011;30134;47.866;-4.222;2023-07-31T07:57:42;9.52;;;3.85;;
44428;SDS011;30134;47.866;-4.222;2023-07-31T08:00:09;7.90;;;3.70;;
44428;SDS011;30134;47.866;-4.222;2023-07-31T08:02:37;9.45;;;3.90;;
44428;SDS011;30134;47.866;-4.222;2023-07-31T08:05:03;9.05;;;3.80;;
44428;SDS011;30134;47.866;-4.222;2023-07-31T08:07:30;11.38;;;4.30;;
44428;SDS011;30134;47.866;-4.222;2023-07-31T08:09:58;11.77;;;4.05;;
44428;SDS011;30134;47.866;-4.222;2023-07-31T08:12:24;9.52;;;3.75;;
44428;SDS011;30134;47.866;-4.222;2023-07-31T08:14:50;7.03;;;3.65;;
44428;SDS011;30134;47.866;-4.222;2023-07-31T08:17:17;12.45;;;4.28;;
44428;SDS011;30134;47.866;-4.222;2023-07-31T08:19:43;7.95;;;3.30;;
44428;SDS011;30134;47.866;-4.222;2023-07-31T08:22:10;10.02;;;3.92;;
44428;SDS011;30134;47.866;-4.222;2023-07-31T08:24:36;10.98;;;3.75;;
44428;SDS011;30134;47.866;-4.222;2023-07-31T08:27:02;8.75;;;3.45;;
44428;SDS011;30134;47.866;-4.222;2023-07-31T08:29:28;9.27;;;3.92;;
44428;SDS011;30134;47.866;-4.222;2023-07-31T08:31:54;8.43;;;3.80;;
44428;SDS011;30134;47.866;-4.222;2023-07-31T08:34:20;8.00;;;3.63;;
44428;SDS011;30134;47.866;-4.222;2023-07-31T08:36:46;7.38;;;3.55;;
44428;SDS011;30134;47.866;-4.222;2023-07-31T08:39:12;7.88;;;3.65;;
44428;SDS011;30134;47.866;-4.222;2023-07-31T08:41:38;8.57;;;3.47;;
44428;SDS011;30134;47.866;-4.222;2023-07-31T08:44:04;11.63;;;3.78;;
44428;SDS011;30134;47.866;-4.222;2023-07-31T08:46:32;9.32;;;3.95;;
44428;SDS011;30134;47.866;-4.222;2023-07-31T08:48:59;8.88;;;3.55;;
44428;SDS011;30134;47.866;-4.222;2023-07-31T08:51:26;10.48;;;4.15;;
44428;SDS011;30134;47.866;-4.222;2023-07-31T08:53:53;7.30;;;3.50;;
44428;SDS011;30134;47.866;-4.222;2023-07-31T08:56:18;9.70;;;3.80;;
44428;SDS011;30134;47.866;-4.222;2023-07-31T08:58:45;8.05;;;3.70;;
44428;SDS011;30134;47.866;-4.222;2023-07-31T09:01:12;8.38;;;3.65;;
44428;SDS011;30134;47.866;-4.222;2023-07-31T09:03:40;7.90;;;3.75;;
44428;SDS011;30134;47.866;-4.222;2023-07-31T09:06:07;10.70;;;3.65;;
44428;SDS011;30134;47.866;-4.222;2023-07-31T09:08:33;8.18;;;3.65;;
44428;SDS011;30134;47.866;-4.222;2023-07-31T09:11:00;7.97;;;3.40;;
44428;SDS011;30134;47.866;-4.222;2023-07-31T09:13:31;9.63;;;4.03;;
44428;SDS011;30134;47.866;-4.222;2023-07-31T09:15:58;9.70;;;3.90;;
44428;SDS011;30134;47.866;-4.222;2023-07-31T09:18:24;9.13;;;3.65;;
44428;SDS011;30134;47.866;-4.222;2023-07-31T09:21:00;11.85;;;4.10;;
44428;SDS011;30134;47.866;-4.222;2023-07-31T09:23:39;8.45;;;3.88;;
44428;SDS011;30134;47.866;-4.222;2023-07-31T09:26:10;5.88;;;3.20;;
44428;SDS011;30134;47.866;-4.222;2023-07-31T09:28:37;13.05;;;4.38;;
44428;SDS011;30134;47.866;-4.222;2023-07-31T09:31:03;20.67;;;5.63;;
44428;SDS011;30134;47.866;-4.222;2023-07-31T09:33:29;17.77;;;5.75;;
44428;SDS011;30134;47.866;-4.222;2023-07-31T09:35:56;16.17;;;4.85;;
44428;SDS011;30134;47.866;-4.222;2023-07-31T09:38:25;23.05;;;5.57;;
44428;SDS011;30134;47.866;-4.222;2023-07-31T09:40:51;18.05;;;5.15;;
44428;SDS011;30134;47.866;-4.222;2023-07-31T09:43:18;25.83;;;5.95;;
44428;SDS011;30134;47.866;-4.222;2023-07-31T09:45:46;16.05;;;5.13;;
44428;SDS011;30134;47.866;-4.222;2023-07-31T09:48:16;23.73;;;5.28;;
44428;SDS011;30134;47.866;-4.222;2023-07-31T09:50:47;21.98;;;6.05;;
44428;SDS011;30134;47.866;-4.222;2023-07-31T09:53:15;17.67;;;5.65;;
44428;SDS011;30134;47.866;-4.222;2023-07-31T09:55:44;22.27;;;6.00;;
44428;SDS011;30134;47.866;-4.222;2023-07-31T09:58:10;22.20;;;6.18;;
44428;SDS011;30134;47.866;-4.222;2023-07-31T10:00:38;21.25;;;5.45;;
44428;SDS011;30134;47.866;-4.222;2023-07-31T10:03:06;21.90;;;6.07;;
44428;SDS011;30134;47.866;-4.222;2023-07-31T10:05:56;19.58;;;5.95;;
44428;SDS011;30134;47.866;-4.222;2023-07-31T10:08:30;22.13;;;5.80;;
44428;SDS011;30134;47.866;-4.222;2023-07-31T10:11:00;27.17;;;6.32;;
44428;SDS011;30134;47.866;-4.222;2023-07-31T10:13:30;22.05;;;6.05;;
44428;SDS011;30134;47.866;-4.222;2023-07-31T10:15:58;20.95;;;6.13;;
44428;SDS011;30134;47.866;-4.222;2023-07-31T10:18:26;26.80;;;6.65;;
44428;SDS011;30134;47.866;-4.222;2023-07-31T10:20:54;21.02;;;6.07;;
44428;SDS011;30134;47.866;-4.222;2023-07-31T10:23:22;18.05;;;6.25;;
44428;SDS011;30134;47.866;-4.222;2023-07-31T10:25:51;23.48;;;6.55;;
44428;SDS011;30134;47.866;-4.222;2023-07-31T10:28:21;24.10;;;6.95;;
44428;SDS011;30134;47.866;-4.222;2023-07-31T10:30:50;22.45;;;6.65;;
44428;SDS011;30134;47.866;-4.222;2023-07-31T10:33:23;17.00;;;6.00;;
44428;SDS011;30134;47.866;-4.222;2023-07-31T10:35:50;27.48;;;7.20;;
44428;SDS011;30134;47.866;-4.222;2023-07-31T10:38:18;23.27;;;7.13;;
44428;SDS011;30134;47.866;-4.222;2023-07-31T10:40:44;20.65;;;8.90;;
44428;SDS011;30134;47.866;-4.222;2023-07-31T10:43:24;25.65;;;7.45;;
44428;SDS011;30134;47.866;-4.222;2023-07-31T10:45:55;24.55;;;7.05;;
44428;SDS011;30134;47.866;-4.222;2023-07-31T10:48:21;18.73;;;6.32;;
44428;SDS011;30134;47.866;-4.222;2023-07-31T10:53:25;23.90;;;7.25;;
44428;SDS011;30134;47.866;-4.222;2023-07-31T10:56:00;25.63;;;6.72;;
44428;SDS011;30134;47.866;-4.222;2023-07-31T10:58:35;23.05;;;7.20;;
44428;SDS011;30134;47.866;-4.222;2023-07-31T11:01:03;26.58;;;7.53;;
44428;SDS011;30134;47.866;-4.222;2023-07-31T11:03:40;28.13;;;7.43;;
44428;SDS011;30134;47.866;-4.222;2023-07-31T11:06:12;22.35;;;6.65;;
44428;SDS011;30134;47.866;-4.222;2023-07-31T11:08:45;32.17;;;8.10;;
44428;SDS011;30134;47.866;-4.222;2023-07-31T11:11:14;26.90;;;7.78;;
44428;SDS011;30134;47.866;-4.222;2023-07-31T11:13:43;23.25;;;6.97;;
44428;SDS011;30134;47.866;-4.222;2023-07-31T11:16:14;26.50;;;7.13;;
44428;SDS011;30134;47.866;-4.222;2023-07-31T11:18:41;24.45;;;7.57;;
44428;SDS011;30134;47.866;-4.222;2023-07-31T11:21:12;21.75;;;7.30;;
44428;SDS011;30134;47.866;-4.222;2023-07-31T11:23:41;21.23;;;7.03;;
44428;SDS011;30134;47.866;-4.222;2023-07-31T11:26:22;24.40;;;7.07;;
44428;SDS011;30134;47.866;-4.222;2023-07-31T11:28:50;23.63;;;7.28;;
44428;SDS011;30134;47.866;-4.222;2023-07-31T11:31:19;22.10;;;6.60;;
44428;SDS011;30134;47.866;-4.222;2023-07-31T11:33:45;18.27;;;6.55;;
44428;SDS011;30134;47.866;-4.222;2023-07-31T11:36:15;21.35;;;7.05;;
44428;SDS011;30134;47.866;-4.222;2023-07-31T11:38:46;25.55;;;6.88;;
44428;SDS011;30134;47.866;-4.222;2023-07-31T11:41:16;26.08;;;7.15;;
44428;SDS011;30134;47.866;-4.222;2023-07-31T11:43:42;24.33;;;6.38;;
44428;SDS011;30134;47.866;-4.222;2023-07-31T11:46:08;20.75;;;6.60;;
44428;SDS011;30134;47.866;-4.222;2023-07-31T11:48:36;18.25;;;6.55;;
44428;SDS011;30134;47.866;-4.222;2023-07-31T11:51:03;20.40;;;6.47;;
44428;SDS011;30134;47.866;-4.222;2023-07-31T11:53:38;17.38;;;5.57;;
44428;SDS011;30134;47.866;-4.222;2023-07-31T11:56:17;18.75;;;6.55;;
44428;SDS011;30134;47.866;-4.222;2023-07-31T11:58:46;21.92;;;8.63;;
44428;SDS011;30134;47.866;-4.222;2023-07-31T12:01:14;18.75;;;7.03;;
44428;SDS011;30134;47.866;-4.222;2023-07-31T12:03:42;27.10;;;8.10;;
44428;SDS011;30134;47.866;-4.222;2023-07-31T12:06:09;20.67;;;7.57;;
44428;SDS011;30134;47.866;-4.222;2023-07-31T12:08:36;23.15;;;7.30;;
44428;SDS011;30134;47.866;-4.222;2023-07-31T12:11:06;19.13;;;6.28;;
44428;SDS011;30134;47.866;-4.222;2023-07-31T12:13:38;13.93;;;4.93;;
44428;SDS011;30134;47.866;-4.222;2023-07-31T12:16:04;13.85;;;5.22;;
44428;SDS011;30134;47.866;-4.222;2023-07-31T12:18:34;10.57;;;4.88;;
44428;SDS011;30134;47.866;-4.222;2023-07-31T12:21:06;10.65;;;4.55;;
44428;SDS011;30134;47.866;-4.222;2023-07-31T12:23:41;11.45;;;4.90;;
44428;SDS011;30134;47.866;-4.222;2023-07-31T12:26:10;15.38;;;5.25;;
44428;SDS011;30134;47.866;-4.222;2023-07-31T12:28:43;16.77;;;6.55;;
44428;SDS011;30134;47.866;-4.222;2023-07-31T12:31:18;17.42;;;6.50;;
44428;SDS011;30134;47.866;-4.222;2023-07-31T12:33:47;22.05;;;6.85;;
44428;SDS011;30134;47.866;-4.222;2023-07-31T12:36:17;24.75;;;7.60;;
44428;SDS011;30134;47.866;-4.222;2023-07-31T12:38:51;17.80;;;7.03;;
44428;SDS011;30134;47.866;-4.222;2023-07-31T12:41:18;23.45;;;7.03;;
44428;SDS011;30134;47.866;-4.222;2023-07-31T12:43:44;23.02;;;7.05;;
44428;SDS011;30134;47.866;-4.222;2023-07-31T12:46:11;24.30;;;7.30;;
44428;SDS011;30134;47.866;-4.222;2023-07-31T12:48:38;24.77;;;7.57;;
44428;SDS011;30134;47.866;-4.222;2023-07-31T12:51:05;22.10;;;7.63;;
44428;SDS011;30134;47.866;-4.222;2023-07-31T12:53:32;28.85;;;7.63;;
44428;SDS011;30134;47.866;-4.222;2023-07-31T12:55:58;27.45;;;7.55;;
44428;SDS011;30134;47.866;-4.222;2023-07-31T12:58:25;28.30;;;8.55;;
44428;SDS011;30134;47.866;-4.222;2023-07-31T13:00:51;33.63;;;9.43;;
44428;SDS011;30134;47.866;-4.222;2023-07-31T13:03:17;31.00;;;8.73;;
44428;SDS011;30134;47.866;-4.222;2023-07-31T13:05:43;32.13;;;8.05;;
44428;SDS011;30134;47.866;-4.222;2023-07-31T13:08:09;32.72;;;7.68;;
44428;SDS011;30134;47.866;-4.222;2023-07-31T13:10:35;25.63;;;7.93;;
44428;SDS011;30134;47.866;-4.222;2023-07-31T13:13:01;30.13;;;8.90;;
44428;SDS011;30134;47.866;-4.222;2023-07-31T13:15:27;38.47;;;9.63;;
44428;SDS011;30134;47.866;-4.222;2023-07-31T13:17:53;37.17;;;9.52;;
44428;SDS011;30134;47.866;-4.222;2023-07-31T13:20:19;37.03;;;9.90;;
44428;SDS011;30134;47.866;-4.222;2023-07-31T13:22:45;48.22;;;10.68;;
44428;SDS011;30134;47.866;-4.222;2023-07-31T13:25:11;38.60;;;9.95;;
44428;SDS011;30134;47.866;-4.222;2023-07-31T13:27:40;42.58;;;9.93;;
44428;SDS011;30134;47.866;-4.222;2023-07-31T13:30:06;46.13;;;10.02;;
44428;SDS011;30134;47.866;-4.222;2023-07-31T13:32:32;42.80;;;11.18;;
44428;SDS011;30134;47.866;-4.222;2023-07-31T13:34:59;38.60;;;10.10;;
44428;SDS011;30134;47.866;-4.222;2023-07-31T13:37:25;50.13;;;11.50;;
44428;SDS011;30134;47.866;-4.222;2023-07-31T13:39:51;46.80;;;10.85;;
44428;SDS011;30134;47.866;-4.222;2023-07-31T13:42:17;37.63;;;10.73;;
44428;SDS011;30134;47.866;-4.222;2023-07-31T13:44:43;41.55;;;11.73;;
44428;SDS011;30134;47.866;-4.222;2023-07-31T13:47:09;48.70;;;10.65;;
44428;SDS011;30134;47.866;-4.222;2023-07-31T13:49:36;50.78;;;12.13;;
44428;SDS011;30134;47.866;-4.222;2023-07-31T13:52:04;47.22;;;11.68;;
44428;SDS011;30134;47.866;-4.222;2023-07-31T13:54:30;45.40;;;11.35;;
44428;SDS011;30134;47.866;-4.222;2023-07-31T13:56:56;50.22;;;9.93;;
44428;SDS011;30134;47.866;-4.222;2023-07-31T13:59:22;47.95;;;11.88;;
44428;SDS011;30134;47.866;-4.222;2023-07-31T14:01:48;50.17;;;10.98;;
44428;SDS011;30134;47.866;-4.222;2023-07-31T14:04:15;35.55;;;9.40;;
44428;SDS011;30134;47.866;-4.222;2023-07-31T14:06:43;46.92;;;11.35;;
44428;SDS011;30134;47.866;-4.222;2023-07-31T14:09:09;44.58;;;10.98;;
44428;SDS011;30134;47.866;-4.222;2023-07-31T14:11:35;41.85;;;10.82;;
44428;SDS011;30134;47.866;-4.222;2023-07-31T14:14:01;42.03;;;10.73;;
44428;SDS011;30134;47.866;-4.222;2023-07-31T14:16:27;39.20;;;9.93;;
44428;SDS011;30134;47.866;-4.222;2023-07-31T14:18:54;44.42;;;10.52;;
44428;SDS011;30134;47.866;-4.222;2023-07-31T14:21:20;51.38;;;11.43;;
44428;SDS011;30134;47.866;-4.222;2023-07-31T14:23:46;36.00;;;10.02;;
44428;SDS011;30134;47.866;-4.222;2023-07-31T14:26:12;48.65;;;11.52;;
44428;SDS011;30134;47.866;-4.222;2023-07-31T14:28:38;44.30;;;10.88;;
44428;SDS011;30134;47.866;-4.222;2023-07-31T14:31:04;49.38;;;11.55;;
44428;SDS011;30134;47.866;-4.222;2023-07-31T14:33:30;40.92;;;10.52;;